sensor_id;sensor_type;location;lat;lon;timestamp;temperature;humidity
14771;DHT22;7477;45.222;5.688;2024-02-23T00:01:51;9.10;99.90
14771;DHT22;7477;45.222;5.688;2024-02-23T00:05:10;9.20;99.90
14771;DHT22;7477;45.222;5.688;2024-02-23T00:08:29;9.20;99.90
14771;DHT22;7477;45.222;5.688;2024-02-23T00:11:48;9.20;99.90
14771;DHT22;7477;45.222;5.688;2024-02-23T00:15:08;9.10;99.90
14771;DHT22;7477;45.222;5.688;2024-02-23T00:18:28;9.10;99.90
14771;DHT22;7477;45.222;5.688;2024-02-23T00:21:47;9.10;99.90
14771;DHT22;7477;45.222;5.688;2024-02-23T00:25:09;9.10;99.90
14771;DHT22;7477;45.222;5.688;2024-02-23T00:28:28;9.00;99.90
14771;DHT22;7477;45.222;5.688;2024-02-23T00:31:47;9.00;99.90
14771;DHT22;7477;45.222;5.688;2024-02-23T00:35:06;8.90;99.90
14771;DHT22;7477;45.222;5.688;2024-02-23T00:38:26;8.90;99.90
14771;DHT22;7477;45.222;5.688;2024-02-23T00:41:45;9.50;99.90
14771;DHT22;7477;45.222;5.688;2024-02-23T00:45:05;8.70;99.90
14771;DHT22;7477;45.222;5.688;2024-02-23T00:48:24;8.70;99.90
14771;DHT22;7477;45.222;5.688;2024-02-23T00:51:43;8.70;99.90
14771;DHT22;7477;45.222;5.688;2024-02-23T00:55:02;8.60;99.90
14771;DHT22;7477;45.222;5.688;2024-02-23T00:58:22;8.50;99.90
14771;DHT22;7477;45.222;5.688;2024-02-23T01:01:41;8.40;99.90
14771;DHT22;7477;45.222;5.688;2024-02-23T01:05:00;8.50;99.90
14771;DHT22;7477;45.222;5.688;2024-02-23T01:08:20;8.40;99.90
14771;DHT22;7477;45.222;5.688;2024-02-23T01:11:39;8.30;99.90
14771;DHT22;7477;45.222;5.688;2024-02-23T01:14:58;8.30;99.90
14771;DHT22;7477;45.222;5.688;2024-02-23T01:18:17;8.30;99.90
14771;DHT22;7477;45.222;5.688;2024-02-23T01:21:36;8.20;99.90
14771;DHT22;7477;45.222;5.688;2024-02-23T01:24:55;8.10;99.90
14771;DHT22;7477;45.222;5.688;2024-02-23T01:28:14;7.90;99.90
14771;DHT22;7477;45.222;5.688;2024-02-23T01:31:33;8.10;99.90
14771;DHT22;7477;45.222;5.688;2024-02-23T01:34:53;8.10;99.90
14771;DHT22;7477;45.222;5.688;2024-02-23T01:38:12;8.00;99.90
14771;DHT22;7477;45.222;5.688;2024-02-23T01:41:38;7.90;99.90
14771;DHT22;7477;45.222;5.688;2024-02-23T01:44:57;7.90;99.90
14771;DHT22;7477;45.222;5.688;2024-02-23T01:48:20;8.00;99.90
14771;DHT22;7477;45.222;5.688;2024-02-23T01:51:40;8.00;99.90
14771;DHT22;7477;45.222;5.688;2024-02-23T01:58:19;7.80;99.90
14771;DHT22;7477;45.222;5.688;2024-02-23T02:01:38;7.90;99.90
14771;DHT22;7477;45.222;5.688;2024-02-23T02:04:58;7.80;99.90
14771;DHT22;7477;45.222;5.688;2024-02-23T02:08:17;7.80;99.90
14771;DHT22;7477;45.222;5.688;2024-02-23T02:11:50;7.70;99.90
14771;DHT22;7477;45.222;5.688;2024-02-23T02:15:09;7.90;99.90
14771;DHT22;7477;45.222;5.688;2024-02-23T02:18:29;7.90;99.90
14771;DHT22;7477;45.222;5.688;2024-02-23T02:21:49;7.90;99.90
14771;DHT22;7477;45.222;5.688;2024-02-23T02:25:08;7.90;99.90
14771;DHT22;7477;45.222;5.688;2024-02-23T02:28:27;7.90;99.90
14771;DHT22;7477;45.222;5.688;2024-02-23T02:31:47;7.80;99.90
14771;DHT22;7477;45.222;5.688;2024-02-23T02:35:07;7.80;99.90
14771;DHT22;7477;45.222;5.688;2024-02-23T02:38:26;7.80;99.90
14771;DHT22;7477;45.222;5.688;2024-02-23T02:41:45;7.70;99.90
14771;DHT22;7477;45.222;5.688;2024-02-23T02:45:05;7.70;99.90
14771;DHT22;7477;45.222;5.688;2024-02-23T02:48:25;7.60;99.90
14771;DHT22;7477;45.222;5.688;2024-02-23T02:51:44;7.60;99.90
14771;DHT22;7477;45.222;5.688;2024-02-23T02:55:04;7.50;99.90
14771;DHT22;7477;45.222;5.688;2024-02-23T02:58:24;7.50;99.90
14771;DHT22;7477;45.222;5.688;2024-02-23T03:01:43;7.50;99.90
14771;DHT22;7477;45.222;5.688;2024-02-23T03:05:03;7.50;99.90
14771;DHT22;7477;45.222;5.688;2024-02-23T03:08:22;7.40;99.90
14771;DHT22;7477;45.222;5.688;2024-02-23T03:11:41;7.40;99.90
14771;DHT22;7477;45.222;5.688;2024-02-23T03:15:00;7.30;99.90
14771;DHT22;7477;45.222;5.688;2024-02-23T03:18:21;7.10;99.90
14771;DHT22;7477;45.222;5.688;2024-02-23T03:21:41;7.00;99.90
14771;DHT22;7477;45.222;5.688;2024-02-23T03:25:00;7.10;99.90
14771;DHT22;7477;45.222;5.688;2024-02-23T03:28:27;7.10;99.90
14771;DHT22;7477;45.222;5.688;2024-02-23T03:31:46;7.00;99.90
14771;DHT22;7477;45.222;5.688;2024-02-23T03:35:06;6.90;99.90
14771;DHT22;7477;45.222;5.688;2024-02-23T03:38:27;6.90;99.90
14771;DHT22;7477;45.222;5.688;2024-02-23T03:41:48;6.80;99.90
14771;DHT22;7477;45.222;5.688;2024-02-23T03:45:07;6.90;99.90
14771;DHT22;7477;45.222;5.688;2024-02-23T03:48:27;6.90;99.90
14771;DHT22;7477;45.222;5.688;2024-02-23T03:51:46;6.90;99.90
14771;DHT22;7477;45.222;5.688;2024-02-23T03:55:06;6.70;99.90
14771;DHT22;7477;45.222;5.688;2024-02-23T03:58:25;6.70;99.90
14771;DHT22;7477;45.222;5.688;2024-02-23T04:01:48;6.70;99.90
14771;DHT22;7477;45.222;5.688;2024-02-23T04:05:07;6.60;99.90
14771;DHT22;7477;45.222;5.688;2024-02-23T04:08:27;6.50;99.90
14771;DHT22;7477;45.222;5.688;2024-02-23T04:11:47;6.40;99.90
14771;DHT22;7477;45.222;5.688;2024-02-23T04:15:07;6.30;99.90
14771;DHT22;7477;45.222;5.688;2024-02-23T04:18:27;6.20;99.90
14771;DHT22;7477;45.222;5.688;2024-02-23T04:21:46;6.20;99.90
14771;DHT22;7477;45.222;5.688;2024-02-23T04:25:05;6.20;99.90
14771;DHT22;7477;45.222;5.688;2024-02-23T04:28:25;6.20;99.90
14771;DHT22;7477;45.222;5.688;2024-02-23T04:31:46;6.10;99.90
14771;DHT22;7477;45.222;5.688;2024-02-23T04:35:06;5.90;99.90
14771;DHT22;7477;45.222;5.688;2024-02-23T04:38:25;5.80;99.90
14771;DHT22;7477;45.222;5.688;2024-02-23T04:41:44;5.90;99.90
14771;DHT22;7477;45.222;5.688;2024-02-23T04:45:04;5.90;99.90
14771;DHT22;7477;45.222;5.688;2024-02-23T04:48:23;5.90;99.90
14771;DHT22;7477;45.222;5.688;2024-02-23T04:51:43;5.80;99.90
14771;DHT22;7477;45.222;5.688;2024-02-23T04:55:03;5.60;99.90
14771;DHT22;7477;45.222;5.688;2024-02-23T04:58:22;5.50;99.90
14771;DHT22;7477;45.222;5.688;2024-02-23T05:01:41;5.40;99.90
14771;DHT22;7477;45.222;5.688;2024-02-23T05:05:03;5.40;99.90
14771;DHT22;7477;45.222;5.688;2024-02-23T05:08:23;5.50;99.90
14771;DHT22;7477;45.222;5.688;2024-02-23T05:11:43;5.40;99.90
14771;DHT22;7477;45.222;5.688;2024-02-23T05:15:02;5.40;99.90
14771;DHT22;7477;45.222;5.688;2024-02-23T05:18:22;5.40;99.90
14771;DHT22;7477;45.222;5.688;2024-02-23T05:21:42;5.30;99.90
14771;DHT22;7477;45.222;5.688;2024-02-23T05:25:01;5.20;99.90
14771;DHT22;7477;45.222;5.688;2024-02-23T05:28:20;5.20;99.90
14771;DHT22;7477;45.222;5.688;2024-02-23T05:31:49;5.20;99.90
14771;DHT22;7477;45.222;5.688;2024-02-23T05:35:09;5.20;99.90
14771;DHT22;7477;45.222;5.688;2024-02-23T05:38:28;5.20;99.90
14771;DHT22;7477;45.222;5.688;2024-02-23T05:41:47;5.20;99.90
14771;DHT22;7477;45.222;5.688;2024-02-23T05:45:09;5.30;99.90
14771;DHT22;7477;45.222;5.688;2024-02-23T05:48:29;5.20;99.90
14771;DHT22;7477;45.222;5.688;2024-02-23T05:51:48;5.20;99.90
14771;DHT22;7477;45.222;5.688;2024-02-23T05:55:07;5.30;99.90
14771;DHT22;7477;45.222;5.688;2024-02-23T05:58:27;5.20;99.90
14771;DHT22;7477;45.222;5.688;2024-02-23T06:01:46;5.10;99.90
14771;DHT22;7477;45.222;5.688;2024-02-23T06:05:05;5.00;99.90
14771;DHT22;7477;45.222;5.688;2024-02-23T06:08:26;5.00;99.90
14771;DHT22;7477;45.222;5.688;2024-02-23T06:11:46;5.00;99.90
14771;DHT22;7477;45.222;5.688;2024-02-23T06:15:05;5.00;99.90
14771;DHT22;7477;45.222;5.688;2024-02-23T06:18:25;4.80;99.90
14771;DHT22;7477;45.222;5.688;2024-02-23T06:21:47;4.70;99.90
14771;DHT22;7477;45.222;5.688;2024-02-23T06:25:08;4.70;99.90
14771;DHT22;7477;45.222;5.688;2024-02-23T06:28:27;4.80;99.90
14771;DHT22;7477;45.222;5.688;2024-02-23T06:31:47;4.70;99.90
14771;DHT22;7477;45.222;5.688;2024-02-23T06:35:08;4.70;99.90
14771;DHT22;7477;45.222;5.688;2024-02-23T06:38:28;4.70;99.90
14771;DHT22;7477;45.222;5.688;2024-02-23T06:41:47;4.80;99.90
14771;DHT22;7477;45.222;5.688;2024-02-23T06:45:07;4.50;99.90
14771;DHT22;7477;45.222;5.688;2024-02-23T06:48:26;4.50;99.90
14771;DHT22;7477;45.222;5.688;2024-02-23T06:51:46;4.40;99.90
14771;DHT22;7477;45.222;5.688;2024-02-23T06:55:05;4.50;99.90
14771;DHT22;7477;45.222;5.688;2024-02-23T06:58:24;4.50;99.90
14771;DHT22;7477;45.222;5.688;2024-02-23T07:01:51;4.50;99.90
14771;DHT22;7477;45.222;5.688;2024-02-23T07:05:10;4.50;99.90
14771;DHT22;7477;45.222;5.688;2024-02-23T07:08:30;4.50;99.90
14771;DHT22;7477;45.222;5.688;2024-02-23T07:11:49;4.50;99.90
14771;DHT22;7477;45.222;5.688;2024-02-23T07:15:08;4.50;99.90
14771;DHT22;7477;45.222;5.688;2024-02-23T07:18:30;4.50;99.90
14771;DHT22;7477;45.222;5.688;2024-02-23T07:21:50;4.50;99.90
14771;DHT22;7477;45.222;5.688;2024-02-23T07:25:09;4.50;99.90
14771;DHT22;7477;45.222;5.688;2024-02-23T07:28:28;4.50;99.90
14771;DHT22;7477;45.222;5.688;2024-02-23T07:31:48;4.50;99.90
14771;DHT22;7477;45.222;5.688;2024-02-23T07:35:07;4.50;99.90
14771;DHT22;7477;45.222;5.688;2024-02-23T07:38:27;4.60;99.90
14771;DHT22;7477;45.222;5.688;2024-02-23T07:41:46;4.50;99.90
14771;DHT22;7477;45.222;5.688;2024-02-23T07:45:06;4.40;99.90
14771;DHT22;7477;45.222;5.688;2024-02-23T07:48:25;4.40;99.90
14771;DHT22;7477;45.222;5.688;2024-02-23T07:51:45;4.40;99.90
14771;DHT22;7477;45.222;5.688;2024-02-23T07:55:05;4.50;99.90
14771;DHT22;7477;45.222;5.688;2024-02-23T07:58:25;4.50;99.90
14771;DHT22;7477;45.222;5.688;2024-02-23T08:01:45;4.50;99.90
14771;DHT22;7477;45.222;5.688;2024-02-23T08:05:06;4.50;99.90
14771;DHT22;7477;45.222;5.688;2024-02-23T08:08:26;4.50;99.90
14771;DHT22;7477;45.222;5.688;2024-02-23T08:11:47;4.70;99.90
14771;DHT22;7477;45.222;5.688;2024-02-23T08:15:07;4.60;99.90
14771;DHT22;7477;45.222;5.688;2024-02-23T08:18:26;4.70;99.90
14771;DHT22;7477;45.222;5.688;2024-02-23T08:21:46;4.60;99.90
14771;DHT22;7477;45.222;5.688;2024-02-23T08:25:05;4.70;99.90
14771;DHT22;7477;45.222;5.688;2024-02-23T08:28:25;4.80;99.90
14771;DHT22;7477;45.222;5.688;2024-02-23T08:31:45;4.90;99.90
14771;DHT22;7477;45.222;5.688;2024-02-23T08:35:04;4.90;99.90
14771;DHT22;7477;45.222;5.688;2024-02-23T08:38:23;5.10;99.90
14771;DHT22;7477;45.222;5.688;2024-02-23T08:41:42;5.10;99.90
14771;DHT22;7477;45.222;5.688;2024-02-23T08:45:01;5.10;99.90
14771;DHT22;7477;45.222;5.688;2024-02-23T08:48:21;5.10;99.90
14771;DHT22;7477;45.222;5.688;2024-02-23T08:51:40;5.20;99.90
14771;DHT22;7477;45.222;5.688;2024-02-23T08:54:59;5.20;99.90
14771;DHT22;7477;45.222;5.688;2024-02-23T08:58:22;5.30;99.90
14771;DHT22;7477;45.222;5.688;2024-02-23T09:01:41;5.50;99.90
14771;DHT22;7477;45.222;5.688;2024-02-23T09:05:01;5.60;99.90
14771;DHT22;7477;45.222;5.688;2024-02-23T09:08:20;5.60;99.90
14771;DHT22;7477;45.222;5.688;2024-02-23T09:11:39;5.70;99.90
14771;DHT22;7477;45.222;5.688;2024-02-23T09:14:59;5.70;99.90
14771;DHT22;7477;45.222;5.688;2024-02-23T09:18:18;5.80;99.90
14771;DHT22;7477;45.222;5.688;2024-02-23T09:21:37;5.80;99.90
14771;DHT22;7477;45.222;5.688;2024-02-23T09:24:57;5.90;99.90
14771;DHT22;7477;45.222;5.688;2024-02-23T09:28:17;6.00;99.90
14771;DHT22;7477;45.222;5.688;2024-02-23T09:31:36;6.30;99.90
14771;DHT22;7477;45.222;5.688;2024-02-23T09:34:55;6.50;99.90
14771;DHT22;7477;45.222;5.688;2024-02-23T09:38:15;6.50;99.90
14771;DHT22;7477;45.222;5.688;2024-02-23T09:41:35;6.50;99.90
14771;DHT22;7477;45.222;5.688;2024-02-23T09:44:59;6.60;99.90
14771;DHT22;7477;45.222;5.688;2024-02-23T09:48:19;6.70;99.90
14771;DHT22;7477;45.222;5.688;2024-02-23T09:51:39;6.80;99.90
14771;DHT22;7477;45.222;5.688;2024-02-23T09:54:59;6.80;99.90
14771;DHT22;7477;45.222;5.688;2024-02-23T09:58:19;6.80;99.90
14771;DHT22;7477;45.222;5.688;2024-02-23T10:01:39;6.90;99.90
14771;DHT22;7477;45.222;5.688;2024-02-23T10:05:00;7.10;99.90
14771;DHT22;7477;45.222;5.688;2024-02-23T10:08:20;7.20;99.90
14771;DHT22;7477;45.222;5.688;2024-02-23T10:11:39;7.40;99.90
14771;DHT22;7477;45.222;5.688;2024-02-23T10:14:59;7.40;99.90
14771;DHT22;7477;45.222;5.688;2024-02-23T10:29:30;8.20;99.90
14771;DHT22;7477;45.222;5.688;2024-02-23T10:32:51;7.80;99.90
14771;DHT22;7477;45.222;5.688;2024-02-23T10:36:15;7.90;99.90
14771;DHT22;7477;45.222;5.688;2024-02-23T10:39:37;7.90;99.90
14771;DHT22;7477;45.222;5.688;2024-02-23T10:42:57;8.00;99.90
14771;DHT22;7477;45.222;5.688;2024-02-23T10:46:21;8.10;99.90
14771;DHT22;7477;45.222;5.688;2024-02-23T10:49:41;8.70;99.90
14771;DHT22;7477;45.222;5.688;2024-02-23T10:53:01;9.10;99.90
14771;DHT22;7477;45.222;5.688;2024-02-23T10:56:21;9.70;99.90
14771;DHT22;7477;45.222;5.688;2024-02-23T10:59:46;10.20;99.90
14771;DHT22;7477;45.222;5.688;2024-02-23T11:03:06;10.00;99.90
14771;DHT22;7477;45.222;5.688;2024-02-23T11:06:29;9.80;99.90
14771;DHT22;7477;45.222;5.688;2024-02-23T11:09:52;9.10;99.90
14771;DHT22;7477;45.222;5.688;2024-02-23T11:13:11;9.30;99.90
14771;DHT22;7477;45.222;5.688;2024-02-23T11:16:32;9.00;99.90
14771;DHT22;7477;45.222;5.688;2024-02-23T11:19:54;9.60;99.90
14771;DHT22;7477;45.222;5.688;2024-02-23T11:23:14;10.80;99.90
14771;DHT22;7477;45.222;5.688;2024-02-23T11:26:37;9.60;99.90
14771;DHT22;7477;45.222;5.688;2024-02-23T11:30:02;9.40;99.90
14771;DHT22;7477;45.222;5.688;2024-02-23T11:33:38;9.70;99.90
14771;DHT22;7477;45.222;5.688;2024-02-23T11:36:57;10.30;99.90
14771;DHT22;7477;45.222;5.688;2024-02-23T11:40:18;10.30;99.90
14771;DHT22;7477;45.222;5.688;2024-02-23T11:43:37;9.50;99.90
14771;DHT22;7477;45.222;5.688;2024-02-23T11:46:58;10.80;99.90
14771;DHT22;7477;45.222;5.688;2024-02-23T11:50:19;9.50;99.90
14771;DHT22;7477;45.222;5.688;2024-02-23T11:53:39;9.30;99.90
14771;DHT22;7477;45.222;5.688;2024-02-23T11:56:59;9.30;99.90
14771;DHT22;7477;45.222;5.688;2024-02-23T12:00:19;10.70;99.90
14771;DHT22;7477;45.222;5.688;2024-02-23T12:03:38;10.20;99.90
14771;DHT22;7477;45.222;5.688;2024-02-23T12:06:58;11.80;99.90
14771;DHT22;7477;45.222;5.688;2024-02-23T12:10:18;11.10;99.90
14771;DHT22;7477;45.222;5.688;2024-02-23T12:13:38;10.00;99.90
14771;DHT22;7477;45.222;5.688;2024-02-23T12:16:58;9.80;99.90
14771;DHT22;7477;45.222;5.688;2024-02-23T12:20:18;9.70;99.90
14771;DHT22;7477;45.222;5.688;2024-02-23T12:23:44;9.50;99.90
14771;DHT22;7477;45.222;5.688;2024-02-23T12:27:04;9.50;99.90
14771;DHT22;7477;45.222;5.688;2024-02-23T12:30:24;9.50;99.90
14771;DHT22;7477;45.222;5.688;2024-02-23T12:33:46;9.50;99.90
14771;DHT22;7477;45.222;5.688;2024-02-23T12:37:07;9.40;99.90
14771;DHT22;7477;45.222;5.688;2024-02-23T12:40:27;9.40;99.90
14771;DHT22;7477;45.222;5.688;2024-02-23T12:43:46;9.50;99.90
14771;DHT22;7477;45.222;5.688;2024-02-23T12:47:06;9.50;99.90
14771;DHT22;7477;45.222;5.688;2024-02-23T12:50:24;9.60;99.90
14771;DHT22;7477;45.222;5.688;2024-02-23T12:53:44;9.70;99.90
14771;DHT22;7477;45.222;5.688;2024-02-23T12:57:06;9.70;99.90
14771;DHT22;7477;45.222;5.688;2024-02-23T13:00:26;9.70;99.90
14771;DHT22;7477;45.222;5.688;2024-02-23T13:03:45;9.80;99.90
14771;DHT22;7477;45.222;5.688;2024-02-23T13:07:05;9.80;99.90
14771;DHT22;7477;45.222;5.688;2024-02-23T13:10:24;9.90;99.90
14771;DHT22;7477;45.222;5.688;2024-02-23T13:13:45;9.90;99.90
14771;DHT22;7477;45.222;5.688;2024-02-23T13:17:04;9.90;99.90
14771;DHT22;7477;45.222;5.688;2024-02-23T13:20:23;9.90;99.90
14771;DHT22;7477;45.222;5.688;2024-02-23T13:23:43;10.10;99.90
14771;DHT22;7477;45.222;5.688;2024-02-23T13:27:02;10.20;99.90
14771;DHT22;7477;45.222;5.688;2024-02-23T13:30:21;10.30;99.70
14771;DHT22;7477;45.222;5.688;2024-02-23T13:33:41;10.40;99.90
14771;DHT22;7477;45.222;5.688;2024-02-23T13:37:01;10.40;99.90
14771;DHT22;7477;45.222;5.688;2024-02-23T13:40:20;10.20;99.90
14771;DHT22;7477;45.222;5.688;2024-02-23T13:43:39;10.10;99.90
14771;DHT22;7477;45.222;5.688;2024-02-23T13:46:58;10.00;99.90
14771;DHT22;7477;45.222;5.688;2024-02-23T13:50:17;10.00;99.90
14771;DHT22;7477;45.222;5.688;2024-02-23T13:53:37;9.90;99.90
14771;DHT22;7477;45.222;5.688;2024-02-23T13:56:56;9.90;99.90
14771;DHT22;7477;45.222;5.688;2024-02-23T14:00:17;10.00;99.90
14771;DHT22;7477;45.222;5.688;2024-02-23T14:03:37;10.00;99.90
14771;DHT22;7477;45.222;5.688;2024-02-23T14:06:57;10.00;99.90
14771;DHT22;7477;45.222;5.688;2024-02-23T14:10:16;10.00;99.90
14771;DHT22;7477;45.222;5.688;2024-02-23T14:13:35;10.10;99.90
14771;DHT22;7477;45.222;5.688;2024-02-23T14:16:55;10.20;99.90
14771;DHT22;7477;45.222;5.688;2024-02-23T14:20:14;10.30;99.90
14771;DHT22;7477;45.222;5.688;2024-02-23T14:23:34;10.20;99.90
14771;DHT22;7477;45.222;5.688;2024-02-23T14:26:53;10.20;99.90
14771;DHT22;7477;45.222;5.688;2024-02-23T14:30:12;10.20;99.90
14771;DHT22;7477;45.222;5.688;2024-02-23T14:33:32;10.10;99.90
14771;DHT22;7477;45.222;5.688;2024-02-23T14:36:52;10.10;99.90
14771;DHT22;7477;45.222;5.688;2024-02-23T14:40:11;10.10;99.90
14771;DHT22;7477;45.222;5.688;2024-02-23T14:43:30;10.10;99.90
14771;DHT22;7477;45.222;5.688;2024-02-23T14:46:50;10.20;99.90
14771;DHT22;7477;45.222;5.688;2024-02-23T14:50:09;10.30;99.90
14771;DHT22;7477;45.222;5.688;2024-02-23T14:53:28;10.30;99.90
14771;DHT22;7477;45.222;5.688;2024-02-23T14:56:48;10.30;99.90
14771;DHT22;7477;45.222;5.688;2024-02-23T15:00:07;10.20;99.90
14771;DHT22;7477;45.222;5.688;2024-02-23T15:03:27;10.20;99.90
14771;DHT22;7477;45.222;5.688;2024-02-23T15:06:47;10.20;99.90
14771;DHT22;7477;45.222;5.688;2024-02-23T15:10:07;10.20;99.90
14771;DHT22;7477;45.222;5.688;2024-02-23T15:13:27;10.20;99.90
14771;DHT22;7477;45.222;5.688;2024-02-23T15:16:46;10.20;99.90
14771;DHT22;7477;45.222;5.688;2024-02-23T15:20:06;10.20;99.90
14771;DHT22;7477;45.222;5.688;2024-02-23T15:23:26;10.10;99.90
14771;DHT22;7477;45.222;5.688;2024-02-23T15:26:46;10.20;99.90
14771;DHT22;7477;45.222;5.688;2024-02-23T15:30:06;10.40;99.90
14771;DHT22;7477;45.222;5.688;2024-02-23T15:33:28;10.40;99.90
14771;DHT22;7477;45.222;5.688;2024-02-23T15:36:48;10.40;99.90
14771;DHT22;7477;45.222;5.688;2024-02-23T15:40:08;10.40;99.90
14771;DHT22;7477;45.222;5.688;2024-02-23T15:43:28;10.40;99.90
14771;DHT22;7477;45.222;5.688;2024-02-23T15:46:48;10.40;99.90
14771;DHT22;7477;45.222;5.688;2024-02-23T15:50:07;10.40;99.90
14771;DHT22;7477;45.222;5.688;2024-02-23T15:53:26;10.40;99.90
14771;DHT22;7477;45.222;5.688;2024-02-23T15:56:46;10.30;99.90
14771;DHT22;7477;45.222;5.688;2024-02-23T16:00:07;10.30;99.90
14771;DHT22;7477;45.222;5.688;2024-02-23T16:03:30;10.20;99.90
14771;DHT22;7477;45.222;5.688;2024-02-23T16:06:49;10.40;99.90
14771;DHT22;7477;45.222;5.688;2024-02-23T16:10:09;10.50;99.90
14771;DHT22;7477;45.222;5.688;2024-02-23T16:13:32;11.00;99.90
14771;DHT22;7477;45.222;5.688;2024-02-23T16:16:51;10.70;99.90
14771;DHT22;7477;45.222;5.688;2024-02-23T16:20:12;10.50;99.90
14771;DHT22;7477;45.222;5.688;2024-02-23T16:23:31;10.10;99.90
14771;DHT22;7477;45.222;5.688;2024-02-23T16:26:51;9.90;99.90
14771;DHT22;7477;45.222;5.688;2024-02-23T16:30:10;9.80;99.90
14771;DHT22;7477;45.222;5.688;2024-02-23T16:33:30;9.90;99.90
14771;DHT22;7477;45.222;5.688;2024-02-23T16:36:49;10.80;99.90
14771;DHT22;7477;45.222;5.688;2024-02-23T16:40:21;10.90;99.90
14771;DHT22;7477;45.222;5.688;2024-02-23T16:43:41;11.00;99.90
14771;DHT22;7477;45.222;5.688;2024-02-23T16:47:00;10.40;99.90
14771;DHT22;7477;45.222;5.688;2024-02-23T16:50:20;10.20;99.90
14771;DHT22;7477;45.222;5.688;2024-02-23T16:53:39;9.90;99.90
14771;DHT22;7477;45.222;5.688;2024-02-23T16:56:58;9.90;99.90
14771;DHT22;7477;45.222;5.688;2024-02-23T17:00:18;9.80;99.90
14771;DHT22;7477;45.222;5.688;2024-02-23T17:03:37;9.60;99.90
14771;DHT22;7477;45.222;5.688;2024-02-23T17:06:57;9.60;99.90
14771;DHT22;7477;45.222;5.688;2024-02-23T17:10:16;9.60;99.90
14771;DHT22;7477;45.222;5.688;2024-02-23T17:13:36;9.50;99.90
14771;DHT22;7477;45.222;5.688;2024-02-23T17:16:56;9.50;99.90
14771;DHT22;7477;45.222;5.688;2024-02-23T17:20:16;9.60;99.90
14771;DHT22;7477;45.222;5.688;2024-02-23T17:23:37;9.60;99.90
14771;DHT22;7477;45.222;5.688;2024-02-23T17:26:56;9.60;99.90
14771;DHT22;7477;45.222;5.688;2024-02-23T17:30:16;9.60;99.90
14771;DHT22;7477;45.222;5.688;2024-02-23T17:33:35;9.50;99.90
14771;DHT22;7477;45.222;5.688;2024-02-23T17:36:55;9.50;99.90
14771;DHT22;7477;45.222;5.688;2024-02-23T17:40:14;9.40;99.90
14771;DHT22;7477;45.222;5.688;2024-02-23T17:43:33;9.30;99.90
14771;DHT22;7477;45.222;5.688;2024-02-23T17:46:52;9.30;99.90
14771;DHT22;7477;45.222;5.688;2024-02-23T17:50:12;9.30;99.90
14771;DHT22;7477;45.222;5.688;2024-02-23T17:53:32;9.30;99.90
14771;DHT22;7477;45.222;5.688;2024-02-23T17:56:51;9.20;99.90
14771;DHT22;7477;45.222;5.688;2024-02-23T18:00:12;9.10;99.90
14771;DHT22;7477;45.222;5.688;2024-02-23T18:03:32;9.10;99.90
14771;DHT22;7477;45.222;5.688;2024-02-23T18:06:52;9.00;99.90
14771;DHT22;7477;45.222;5.688;2024-02-23T18:10:13;8.90;99.90
14771;DHT22;7477;45.222;5.688;2024-02-23T18:13:32;8.90;99.90
14771;DHT22;7477;45.222;5.688;2024-02-23T18:16:51;8.90;99.90
14771;DHT22;7477;45.222;5.688;2024-02-23T18:20:11;8.70;99.90
14771;DHT22;7477;45.222;5.688;2024-02-23T18:23:30;8.70;99.90
14771;DHT22;7477;45.222;5.688;2024-02-23T18:26:52;8.70;99.90
14771;DHT22;7477;45.222;5.688;2024-02-23T18:30:12;8.70;99.90
14771;DHT22;7477;45.222;5.688;2024-02-23T18:33:31;8.60;99.90
14771;DHT22;7477;45.222;5.688;2024-02-23T18:36:53;8.60;99.90
14771;DHT22;7477;45.222;5.688;2024-02-23T18:40:12;8.60;99.90
14771;DHT22;7477;45.222;5.688;2024-02-23T18:43:33;8.50;99.90
14771;DHT22;7477;45.222;5.688;2024-02-23T18:46:54;8.50;99.90
14771;DHT22;7477;45.222;5.688;2024-02-23T18:50:15;8.60;99.90
14771;DHT22;7477;45.222;5.688;2024-02-23T18:53:34;8.50;99.90
14771;DHT22;7477;45.222;5.688;2024-02-23T18:56:54;8.50;99.90
14771;DHT22;7477;45.222;5.688;2024-02-23T19:00:14;8.60;99.90
14771;DHT22;7477;45.222;5.688;2024-02-23T19:03:33;8.60;99.90
14771;DHT22;7477;45.222;5.688;2024-02-23T19:06:52;8.50;99.90
14771;DHT22;7477;45.222;5.688;2024-02-23T19:10:11;8.60;99.90
14771;DHT22;7477;45.222;5.688;2024-02-23T19:13:31;8.40;99.90
14771;DHT22;7477;45.222;5.688;2024-02-23T19:16:50;8.40;99.90
14771;DHT22;7477;45.222;5.688;2024-02-23T19:20:10;8.40;99.90
14771;DHT22;7477;45.222;5.688;2024-02-23T19:23:30;8.30;99.90
14771;DHT22;7477;45.222;5.688;2024-02-23T19:26:49;8.40;99.90
14771;DHT22;7477;45.222;5.688;2024-02-23T19:30:08;8.40;99.90
14771;DHT22;7477;45.222;5.688;2024-02-23T19:33:36;8.40;99.90
14771;DHT22;7477;45.222;5.688;2024-02-23T19:36:56;8.30;99.90
14771;DHT22;7477;45.222;5.688;2024-02-23T19:40:17;8.30;99.90
14771;DHT22;7477;45.222;5.688;2024-02-23T19:43:41;8.30;99.90
14771;DHT22;7477;45.222;5.688;2024-02-23T19:47:00;8.30;99.90
14771;DHT22;7477;45.222;5.688;2024-02-23T19:50:19;8.20;99.90
14771;DHT22;7477;45.222;5.688;2024-02-23T19:53:38;8.30;99.90
14771;DHT22;7477;45.222;5.688;2024-02-23T19:56:58;8.40;99.90
14771;DHT22;7477;45.222;5.688;2024-02-23T20:00:17;8.40;99.90
14771;DHT22;7477;45.222;5.688;2024-02-23T20:03:37;8.30;99.90
14771;DHT22;7477;45.222;5.688;2024-02-23T20:06:56;8.30;99.90
14771;DHT22;7477;45.222;5.688;2024-02-23T20:10:15;8.40;99.90
14771;DHT22;7477;45.222;5.688;2024-02-23T20:13:37;8.40;99.90
14771;DHT22;7477;45.222;5.688;2024-02-23T20:16:56;8.40;99.90
14771;DHT22;7477;45.222;5.688;2024-02-23T20:20:16;8.30;99.90
14771;DHT22;7477;45.222;5.688;2024-02-23T20:23:36;8.20;99.90
14771;DHT22;7477;45.222;5.688;2024-02-23T20:26:55;8.30;99.90
14771;DHT22;7477;45.222;5.688;2024-02-23T20:30:14;8.30;99.90
14771;DHT22;7477;45.222;5.688;2024-02-23T20:33:34;8.30;99.90
14771;DHT22;7477;45.222;5.688;2024-02-23T20:36:53;8.40;99.90
14771;DHT22;7477;45.222;5.688;2024-02-23T20:40:12;8.40;99.90
14771;DHT22;7477;45.222;5.688;2024-02-23T20:43:31;8.40;99.90
14771;DHT22;7477;45.222;5.688;2024-02-23T20:46:51;8.40;99.90
14771;DHT22;7477;45.222;5.688;2024-02-23T20:50:10;8.40;99.90
14771;DHT22;7477;45.222;5.688;2024-02-23T20:53:30;8.40;99.90
14771;DHT22;7477;45.222;5.688;2024-02-23T20:56:49;8.40;99.90
14771;DHT22;7477;45.222;5.688;2024-02-23T21:00:09;8.40;99.90
14771;DHT22;7477;45.222;5.688;2024-02-23T21:03:28;8.30;99.90
14771;DHT22;7477;45.222;5.688;2024-02-23T21:06:47;8.30;99.90
14771;DHT22;7477;45.222;5.688;2024-02-23T21:10:07;8.30;99.90
14771;DHT22;7477;45.222;5.688;2024-02-23T21:13:27;8.20;99.90
14771;DHT22;7477;45.222;5.688;2024-02-23T21:16:47;8.30;99.90
14771;DHT22;7477;45.222;5.688;2024-02-23T21:20:07;8.40;99.90
14771;DHT22;7477;45.222;5.688;2024-02-23T21:23:27;8.30;99.90
14771;DHT22;7477;45.222;5.688;2024-02-23T21:26:46;8.40;99.90
14771;DHT22;7477;45.222;5.688;2024-02-23T21:30:07;8.40;99.90
14771;DHT22;7477;45.222;5.688;2024-02-23T21:33:27;8.30;99.90
14771;DHT22;7477;45.222;5.688;2024-02-23T21:36:47;8.20;99.90
14771;DHT22;7477;45.222;5.688;2024-02-23T21:40:07;8.20;99.90
14771;DHT22;7477;45.222;5.688;2024-02-23T21:43:26;8.10;99.90
14771;DHT22;7477;45.222;5.688;2024-02-23T21:46:45;8.10;99.90
14771;DHT22;7477;45.222;5.688;2024-02-23T21:50:05;8.20;99.90
14771;DHT22;7477;45.222;5.688;2024-02-23T21:53:25;8.30;99.90
14771;DHT22;7477;45.222;5.688;2024-02-23T21:56:44;8.20;99.90